Boo Sonier — WDG3281 — position and weather

sailwx.info

Track history (hours):
 
Tides and Currents Weather Stations Pressure Air Temp Water Temp Dewpoint Dewpoint Depression Visibility Wind Speed Wind Dir Waves Ship Positions

Boo Sonier

Owner: LeBeouf Bros. Towing, LLC, Houma, LA. More information available from US FCC via Universal Licensing System and Coast Guard Vessel Documentation Center.

Last reported at 2018-Apr-21 06:24 UTC. Time now 2018-Apr-22 06:58 UTC.
Position N 28°57' W 095°20'.

Length 21 m.

Type: Tug. MMSI: 367524420.

Date/timePositionNaut miles runAvg speedWind from/ knotsBaromVisibWave heightAir tempDewpointWater temp
2018-Apr-21 06:24N 28°57' W 095°20'0 0.0
2018-Apr-21 05:53N 28°57' W 095°20'0 0.0
2018-Apr-21 05:28N 28°57' W 095°20'0 0.0
2018-Apr-21 04:56N 28°57' W 095°20'0 0.0
2018-Apr-21 04:28N 28°57' W 095°20'0 0.0
2018-Apr-21 03:59N 28°57' W 095°20'0 0.0
2018-Apr-21 03:29N 28°57' W 095°20'0 0.0
2018-Apr-21 02:45N 28°57' W 095°20'0 0.0
2018-Apr-21 02:26N 28°57' W 095°20'0 0.0
2018-Apr-21 01:31N 28°57' W 095°20'0 1.5
2018-Apr-21 01:30N 28°57' W 095°20'0 0.0
2018-Apr-21 00:57N 28°57' W 095°20'0 0.0
2018-Apr-20 18:21N 28°57' W 095°20'0 0.0
2018-Apr-19 06:06N 28°57' W 095°20'0 0.0
2018-Apr-18 14:44N 28°57' W 095°20'0 0.0
2018-Apr-18 14:26N 28°57' W 095°20'4 2.1
2018-Apr-18 12:30N 28°59' W 095°16'0 0.1
2018-Apr-18 11:09N 28°59' W 095°16'3 1.2
2018-Apr-18 08:52N 29°01' W 095°14'2 4.6
2018-Apr-18 08:25N 29°03' W 095°13'0 0.2
2018-Apr-18 07:59N 29°04' W 095°13'0 0.0
2018-Apr-18 07:30N 29°04' W 095°13'0 0.0
2018-Apr-18 07:00N 29°04' W 095°13'0 0.0
2018-Apr-18 05:02N 29°03' W 095°13'0 0.0
2018-Apr-18 05:00N 29°03' W 095°13'0 0.3
2018-Apr-18 04:30N 29°03' W 095°13'0 0.2
2018-Apr-18 04:00N 29°03' W 095°13'5 3.7
2018-Apr-18 02:44N 29°08' W 095°11'1 2.4
2018-Apr-18 02:27N 29°08' W 095°10'6 3.7
2018-Apr-18 00:45N 29°12' W 095°04'1 6.0
2018-Apr-18 00:30N 29°12' W 095°03'11 4.6
2018-Apr-17 22:07N 29°18' W 094°53'2 6.2
2018-Apr-17 21:50N 29°20' W 094°51'2 2.6
2018-Apr-17 21:04N 29°21' W 094°49'19 2.7
2018-Apr-17 14:09N 29°31' W 094°31'2 6.5
2018-Apr-17 13:49N 29°32' W 094°29'2 6.2
2018-Apr-17 13:29N 29°33' W 094°28'3 5.7
2018-Apr-17 13:00N 29°35' W 094°25'1 2.9
2018-Apr-17 12:30N 29°36' W 094°24'3 5.8
2018-Apr-17 11:54N 29°37' W 094°20'3 6.3
2018-Apr-17 11:29N 29°38' W 094°18'3 6.3
2018-Apr-17 11:00N 29°40' W 094°15'3 5.4
2018-Apr-17 10:30N 29°41' W 094°12'4 7.1
2018-Apr-17 10:00N 29°42' W 094°08'1 1.6
2018-Apr-17 09:30N 29°43' W 094°07'0 0.0
2018-Apr-17 09:00N 29°43' W 094°07'2 3.8
2018-Apr-17 08:30N 29°44' W 094°06'3 6.0
2018-Apr-17 08:00N 29°46' W 094°03'1 1.8
2018-Apr-17 07:30N 29°46' W 094°02'3 6.1
2018-Apr-17 07:00N 29°49' W 093°60'3 6.8
2018-Apr-17 06:30N 29°51' W 093°57'5 9.3
2018-Apr-17 06:00N 29°55' W 093°54'4 8.5
2018-Apr-17 05:30N 29°58' W 093°51'3 6.1
2018-Apr-17 05:00N 29°59' W 093°48'3 6.3
2018-Apr-17 04:30N 30°01' W 093°45'3 6.1
2018-Apr-17 04:00N 30°03' W 093°42'3 5.9
2018-Apr-17 03:30N 30°04' W 093°39'3 5.6
2018-Apr-17 02:57N 30°04' W 093°35'2 5.3
2018-Apr-17 02:30N 30°04' W 093°32'3 5.3
2018-Apr-17 02:00N 30°04' W 093°29'3 5.2
2018-Apr-17 01:30N 30°04' W 093°26'2 4.7
2018-Apr-17 01:00N 30°04' W 093°24'2 4.6
2018-Apr-17 00:30N 30°04' W 093°21'2 4.9
2018-Apr-17 00:00N 30°06' W 093°19'1 1.8
2018-Apr-16 23:30N 30°06' W 093°18'0 0.4
2018-Apr-16 23:00N 30°06' W 093°18'2 3.3
2018-Apr-16 22:29N 30°05' W 093°17'0 0.8
2018-Apr-16 22:00N 30°04' W 093°16'0 0.0
2018-Apr-16 21:30N 30°04' W 093°16'0 0.0
2018-Apr-16 21:00N 30°04' W 093°16'0 0.0
2018-Apr-16 20:30N 30°04' W 093°16'2 3.0
2018-Apr-16 20:00N 30°03' W 093°16'2 3.2
2018-Apr-16 19:30N 30°02' W 093°15'2 4.0
2018-Apr-16 19:00N 30°00' W 093°13'2 4.3
2018-Apr-16 18:30N 29°58' W 093°12'3 6.0
2018-Apr-16 18:00N 29°56' W 093°10'123 4.1
2018-Apr-15 11:43N 29°32' W 090°51'1 6.0
2018-Apr-15 11:30N 29°32' W 090°49'3 5.8
2018-Apr-15 11:00N 29°32' W 090°46'2 4.5
2018-Apr-15 10:30N 29°34' W 090°44'2 3.3
2018-Apr-15 10:00N 29°35' W 090°43'1 2.8
2018-Apr-15 09:30N 29°37' W 090°42'1 2.4
2018-Apr-15 09:00N 29°36' W 090°41'3 5.1
2018-Apr-15 08:30N 29°35' W 090°38'2 4.5
2018-Apr-15 07:59N 29°35' W 090°36'0 0.0
2018-Apr-15 07:30N 29°35' W 090°36'0 0.0
2018-Apr-15 07:00N 29°35' W 090°36'0 0.0
2018-Apr-15 06:30N 29°35' W 090°36'0 0.0
2018-Apr-15 06:00N 29°35' W 090°36'0 0.0
2018-Apr-15 05:30N 29°35' W 090°36'0 0.0
2018-Apr-15 05:00N 29°35' W 090°36'0 0.8
2018-Apr-15 04:30N 29°35' W 090°35'3 6.0
2018-Apr-15 04:00N 29°34' W 090°32'  
Track history (hours):
 
Tides and Currents Weather Stations Pressure Air Temp Water Temp Dewpoint Dewpoint Depression Visibility Wind Speed Wind Dir Waves Ship Positions

Boo Sonier

Owner: LeBeouf Bros. Towing, LLC, Houma, LA. More information available from US FCC via Universal Licensing System and Coast Guard Vessel Documentation Center.

Last reported at 2018-Apr-21 06:24 UTC. Time now 2018-Apr-22 06:58 UTC.
Position N 28°57' W 095°20'.

Length 21 m.

Type: Tug. MMSI: 367524420.

Date/timePositionNaut miles runAvg speedWind from/ knotsBaromVisibWave heightAir tempDewpointWater temp
2018-Apr-21 06:24N 28°57' W 095°20'0 0.0
2018-Apr-21 05:53N 28°57' W 095°20'0 0.0
2018-Apr-21 05:28N 28°57' W 095°20'0 0.0
2018-Apr-21 04:56N 28°57' W 095°20'0 0.0
2018-Apr-21 04:28N 28°57' W 095°20'0 0.0
2018-Apr-21 03:59N 28°57' W 095°20'0 0.0
2018-Apr-21 03:29N 28°57' W 095°20'0 0.0
2018-Apr-21 02:45N 28°57' W 095°20'0 0.0
2018-Apr-21 02:26N 28°57' W 095°20'0 0.0
2018-Apr-21 01:31N 28°57' W 095°20'0 1.5
2018-Apr-21 01:30N 28°57' W 095°20'0 0.0
2018-Apr-21 00:57N 28°57' W 095°20'0 0.0
2018-Apr-20 18:21N 28°57' W 095°20'0 0.0
2018-Apr-19 06:06N 28°57' W 095°20'0 0.0
2018-Apr-18 14:44N 28°57' W 095°20'0 0.0
2018-Apr-18 14:26N 28°57' W 095°20'4 2.1
2018-Apr-18 12:30N 28°59' W 095°16'0 0.1
2018-Apr-18 11:09N 28°59' W 095°16'3 1.2
2018-Apr-18 08:52N 29°01' W 095°14'2 4.6
2018-Apr-18 08:25N 29°03' W 095°13'0 0.2
2018-Apr-18 07:59N 29°04' W 095°13'0 0.0
2018-Apr-18 07:30N 29°04' W 095°13'0 0.0
2018-Apr-18 07:00N 29°04' W 095°13'0 0.0
2018-Apr-18 05:02N 29°03' W 095°13'0 0.0
2018-Apr-18 05:00N 29°03' W 095°13'0 0.3
2018-Apr-18 04:30N 29°03' W 095°13'0 0.2
2018-Apr-18 04:00N 29°03' W 095°13'5 3.7
2018-Apr-18 02:44N 29°08' W 095°11'1 2.4
2018-Apr-18 02:27N 29°08' W 095°10'6 3.7
2018-Apr-18 00:45N 29°12' W 095°04'1 6.0
2018-Apr-18 00:30N 29°12' W 095°03'11 4.6
2018-Apr-17 22:07N 29°18' W 094°53'2 6.2
2018-Apr-17 21:50N 29°20' W 094°51'2 2.6
2018-Apr-17 21:04N 29°21' W 094°49'19 2.7
2018-Apr-17 14:09N 29°31' W 094°31'2 6.5
2018-Apr-17 13:49N 29°32' W 094°29'2 6.2
2018-Apr-17 13:29N 29°33' W 094°28'3 5.7
2018-Apr-17 13:00N 29°35' W 094°25'1 2.9
2018-Apr-17 12:30N 29°36' W 094°24'3 5.8
2018-Apr-17 11:54N 29°37' W 094°20'3 6.3
2018-Apr-17 11:29N 29°38' W 094°18'3 6.3
2018-Apr-17 11:00N 29°40' W 094°15'3 5.4
2018-Apr-17 10:30N 29°41' W 094°12'4 7.1
2018-Apr-17 10:00N 29°42' W 094°08'1 1.6
2018-Apr-17 09:30N 29°43' W 094°07'0 0.0
2018-Apr-17 09:00N 29°43' W 094°07'2 3.8
2018-Apr-17 08:30N 29°44' W 094°06'3 6.0
2018-Apr-17 08:00N 29°46' W 094°03'1 1.8
2018-Apr-17 07:30N 29°46' W 094°02'3 6.1
2018-Apr-17 07:00N 29°49' W 093°60'3 6.8
2018-Apr-17 06:30N 29°51' W 093°57'5 9.3
2018-Apr-17 06:00N 29°55' W 093°54'4 8.5
2018-Apr-17 05:30N 29°58' W 093°51'3 6.1
2018-Apr-17 05:00N 29°59' W 093°48'3 6.3
2018-Apr-17 04:30N 30°01' W 093°45'3 6.1
2018-Apr-17 04:00N 30°03' W 093°42'3 5.9
2018-Apr-17 03:30N 30°04' W 093°39'3 5.6
2018-Apr-17 02:57N 30°04' W 093°35'2 5.3
2018-Apr-17 02:30N 30°04' W 093°32'3 5.3
2018-Apr-17 02:00N 30°04' W 093°29'3 5.2
2018-Apr-17 01:30N 30°04' W 093°26'2 4.7
2018-Apr-17 01:00N 30°04' W 093°24'2 4.6
2018-Apr-17 00:30N 30°04' W 093°21'2 4.9
2018-Apr-17 00:00N 30°06' W 093°19'1 1.8
2018-Apr-16 23:30N 30°06' W 093°18'0 0.4
2018-Apr-16 23:00N 30°06' W 093°18'2 3.3
2018-Apr-16 22:29N 30°05' W 093°17'0 0.8
2018-Apr-16 22:00N 30°04' W 093°16'0 0.0
2018-Apr-16 21:30N 30°04' W 093°16'0 0.0
2018-Apr-16 21:00N 30°04' W 093°16'0 0.0
2018-Apr-16 20:30N 30°04' W 093°16'2 3.0
2018-Apr-16 20:00N 30°03' W 093°16'2 3.2
2018-Apr-16 19:30N 30°02' W 093°15'2 4.0
2018-Apr-16 19:00N 30°00' W 093°13'2 4.3
2018-Apr-16 18:30N 29°58' W 093°12'3 6.0
2018-Apr-16 18:00N 29°56' W 093°10'123 4.1
2018-Apr-15 11:43N 29°32' W 090°51'1 6.0
2018-Apr-15 11:30N 29°32' W 090°49'3 5.8
2018-Apr-15 11:00N 29°32' W 090°46'2 4.5
2018-Apr-15 10:30N 29°34' W 090°44'2 3.3
2018-Apr-15 10:00N 29°35' W 090°43'1 2.8
2018-Apr-15 09:30N 29°37' W 090°42'1 2.4
2018-Apr-15 09:00N 29°36' W 090°41'3 5.1
2018-Apr-15 08:30N 29°35' W 090°38'2 4.5
2018-Apr-15 07:59N 29°35' W 090°36'0 0.0
2018-Apr-15 07:30N 29°35' W 090°36'0 0.0
2018-Apr-15 07:00N 29°35' W 090°36'0 0.0
2018-Apr-15 06:30N 29°35' W 090°36'0 0.0
2018-Apr-15 06:00N 29°35' W 090°36'0 0.0
2018-Apr-15 05:30N 29°35' W 090°36'0 0.0
2018-Apr-15 05:00N 29°35' W 090°36'0 0.8
2018-Apr-15 04:30N 29°35' W 090°35'3 6.0
2018-Apr-15 04:00N 29°34' W 090°32'  

Dump ship's entire track history